sensor_id;sensor_type;location;lat;lon;timestamp;temperature;humidity
48575;DHT22;34352;51.084;3.712;2022-10-04T00:03:21;12.20;56.70
48575;DHT22;34352;51.084;3.712;2022-10-04T00:05:51;12.30;56.70
48575;DHT22;34352;51.084;3.712;2022-10-04T00:08:57;12.50;50.90
48575;DHT22;34352;51.084;3.712;2022-10-04T00:11:34;12.50;47.60
48575;DHT22;34352;51.084;3.712;2022-10-04T00:14:07;12.40;48.80
48575;DHT22;34352;51.084;3.712;2022-10-04T00:16:37;12.30;54.10
48575;DHT22;34352;51.084;3.712;2022-10-04T00:24:24;11.90;60.00
48575;DHT22;34352;51.084;3.712;2022-10-04T00:29:35;11.90;61.90
48575;DHT22;34352;51.084;3.712;2022-10-04T00:37:12;11.80;65.50
48575;DHT22;34352;51.084;3.712;2022-10-04T00:39:43;11.90;64.30
48575;DHT22;34352;51.084;3.712;2022-10-04T00:42:31;11.80;65.10
48575;DHT22;34352;51.084;3.712;2022-10-04T00:47:56;12.10;60.50
48575;DHT22;34352;51.084;3.712;2022-10-04T00:50:42;12.00;58.70
48575;DHT22;34352;51.084;3.712;2022-10-04T00:53:21;11.90;60.40
48575;DHT22;34352;51.084;3.712;2022-10-04T00:55:55;12.50;61.70
48575;DHT22;34352;51.084;3.712;2022-10-04T00:58:28;11.80;61.80
48575;DHT22;34352;51.084;3.712;2022-10-04T01:00:56;11.90;60.00
48575;DHT22;34352;51.084;3.712;2022-10-04T01:03:29;11.90;58.80
48575;DHT22;34352;51.084;3.712;2022-10-04T01:05:59;11.80;60.90
48575;DHT22;34352;51.084;3.712;2022-10-04T01:08:39;11.80;61.20
48575;DHT22;34352;51.084;3.712;2022-10-04T01:11:20;11.80;61.00
48575;DHT22;34352;51.084;3.712;2022-10-04T01:13:52;11.80;62.80
48575;DHT22;34352;51.084;3.712;2022-10-04T01:16:26;11.80;63.10
48575;DHT22;34352;51.084;3.712;2022-10-04T01:18:52;11.60;66.10
48575;DHT22;34352;51.084;3.712;2022-10-04T01:29:06;11.40;72.40
48575;DHT22;34352;51.084;3.712;2022-10-04T01:31:35;11.30;73.00
48575;DHT22;34352;51.084;3.712;2022-10-04T01:34:02;11.40;72.30
48575;DHT22;34352;51.084;3.712;2022-10-04T01:36:30;11.40;72.30
48575;DHT22;34352;51.084;3.712;2022-10-04T01:38:56;11.40;72.20
48575;DHT22;34352;51.084;3.712;2022-10-04T01:41:38;11.50;70.30
48575;DHT22;34352;51.084;3.712;2022-10-04T01:44:24;11.30;72.60
48575;DHT22;34352;51.084;3.712;2022-10-04T01:46:54;11.20;73.60
48575;DHT22;34352;51.084;3.712;2022-10-04T01:49:24;11.20;73.70
48575;DHT22;34352;51.084;3.712;2022-10-04T01:52:00;11.10;74.80
48575;DHT22;34352;51.084;3.712;2022-10-04T01:54:40;11.10;75.10
48575;DHT22;34352;51.084;3.712;2022-10-04T01:57:36;11.10;75.10
48575;DHT22;34352;51.084;3.712;2022-10-04T02:00:08;11.20;74.80
48575;DHT22;34352;51.084;3.712;2022-10-04T02:05:13;11.10;73.60
48575;DHT22;34352;51.084;3.712;2022-10-04T02:07:40;11.10;73.20
48575;DHT22;34352;51.084;3.712;2022-10-04T02:10:16;11.10;73.10
48575;DHT22;34352;51.084;3.712;2022-10-04T02:12:46;11.00;73.50
48575;DHT22;34352;51.084;3.712;2022-10-04T02:15:13;11.10;73.50
48575;DHT22;34352;51.084;3.712;2022-10-04T02:17:43;11.10;73.20
48575;DHT22;34352;51.084;3.712;2022-10-04T02:20:44;11.20;71.60
48575;DHT22;34352;51.084;3.712;2022-10-04T02:23:02;11.20;71.90
48575;DHT22;34352;51.084;3.712;2022-10-04T02:25:29;11.40;68.90
48575;DHT22;34352;51.084;3.712;2022-10-04T02:27:57;11.10;70.90
48575;DHT22;34352;51.084;3.712;2022-10-04T02:30:35;11.00;73.00
48575;DHT22;34352;51.084;3.712;2022-10-04T02:33:01;11.00;73.90
48575;DHT22;34352;51.084;3.712;2022-10-04T02:35:32;11.00;74.20
48575;DHT22;34352;51.084;3.712;2022-10-04T02:40:56;10.80;75.00
48575;DHT22;34352;51.084;3.712;2022-10-04T02:43:52;10.80;76.70
48575;DHT22;34352;51.084;3.712;2022-10-04T02:49:19;10.70;78.40
48575;DHT22;34352;51.084;3.712;2022-10-04T02:51:52;10.70;78.80
48575;DHT22;34352;51.084;3.712;2022-10-04T02:57:02;10.80;79.00
48575;DHT22;34352;51.084;3.712;2022-10-04T02:59:30;10.70;78.50
48575;DHT22;34352;51.084;3.712;2022-10-04T03:02:00;10.70;78.90
48575;DHT22;34352;51.084;3.712;2022-10-04T03:04:29;10.70;79.50
48575;DHT22;34352;51.084;3.712;2022-10-04T03:06:56;10.80;78.80
48575;DHT22;34352;51.084;3.712;2022-10-04T03:09:26;10.70;79.20
48575;DHT22;34352;51.084;3.712;2022-10-04T03:11:53;10.80;77.40
48575;DHT22;34352;51.084;3.712;2022-10-04T03:14:21;10.70;77.90
48575;DHT22;34352;51.084;3.712;2022-10-04T03:16:49;10.70;77.90
48575;DHT22;34352;51.084;3.712;2022-10-04T03:19:22;10.70;78.30
48575;DHT22;34352;51.084;3.712;2022-10-04T03:21:51;10.60;79.60
48575;DHT22;34352;51.084;3.712;2022-10-04T03:25:01;10.60;78.90
48575;DHT22;34352;51.084;3.712;2022-10-04T03:27:38;10.50;79.90
48575;DHT22;34352;51.084;3.712;2022-10-04T03:30:05;10.50;80.40
48575;DHT22;34352;51.084;3.712;2022-10-04T03:32:32;10.60;79.50
48575;DHT22;34352;51.084;3.712;2022-10-04T03:35:03;10.50;79.40
48575;DHT22;34352;51.084;3.712;2022-10-04T03:37:34;10.50;80.40
48575;DHT22;34352;51.084;3.712;2022-10-04T03:40:06;10.60;80.10
48575;DHT22;34352;51.084;3.712;2022-10-04T03:42:35;10.50;80.20
48575;DHT22;34352;51.084;3.712;2022-10-04T03:45:06;10.60;80.30
48575;DHT22;34352;51.084;3.712;2022-10-04T03:47:40;10.50;79.80
48575;DHT22;34352;51.084;3.712;2022-10-04T03:50:19;10.60;79.90
48575;DHT22;34352;51.084;3.712;2022-10-04T03:52:50;10.70;78.70
48575;DHT22;34352;51.084;3.712;2022-10-04T03:55:19;10.60;78.40
48575;DHT22;34352;51.084;3.712;2022-10-04T03:57:50;10.70;78.60
48575;DHT22;34352;51.084;3.712;2022-10-04T04:00:17;10.70;77.90
48575;DHT22;34352;51.084;3.712;2022-10-04T04:02:56;10.80;76.70
48575;DHT22;34352;51.084;3.712;2022-10-04T04:05:27;10.90;75.30
48575;DHT22;34352;51.084;3.712;2022-10-04T04:08:10;10.90;73.20
48575;DHT22;34352;51.084;3.712;2022-10-04T04:10:41;10.70;75.00
48575;DHT22;34352;51.084;3.712;2022-10-04T04:13:28;10.50;77.20
48575;DHT22;34352;51.084;3.712;2022-10-04T04:15:57;10.40;78.60
48575;DHT22;34352;51.084;3.712;2022-10-04T04:18:28;10.50;79.30
48575;DHT22;34352;51.084;3.712;2022-10-04T04:20:58;10.50;79.90
48575;DHT22;34352;51.084;3.712;2022-10-04T04:26:13;10.40;79.40
48575;DHT22;34352;51.084;3.712;2022-10-04T04:28:46;10.50;78.80
48575;DHT22;34352;51.084;3.712;2022-10-04T04:31:21;10.40;78.80
48575;DHT22;34352;51.084;3.712;2022-10-04T04:33:59;10.50;79.70
48575;DHT22;34352;51.084;3.712;2022-10-04T04:36:32;10.60;78.50
48575;DHT22;34352;51.084;3.712;2022-10-04T04:39:11;10.50;77.90
48575;DHT22;34352;51.084;3.712;2022-10-04T04:41:57;10.50;77.40
48575;DHT22;34352;51.084;3.712;2022-10-04T04:47:47;10.50;75.90
48575;DHT22;34352;51.084;3.712;2022-10-04T04:50:20;10.50;75.50
48575;DHT22;34352;51.084;3.712;2022-10-04T04:52:50;10.50;75.10
48575;DHT22;34352;51.084;3.712;2022-10-04T04:55:22;10.40;74.60
48575;DHT22;34352;51.084;3.712;2022-10-04T04:57:50;10.40;76.30
48575;DHT22;34352;51.084;3.712;2022-10-04T05:00:19;10.30;76.90
48575;DHT22;34352;51.084;3.712;2022-10-04T05:02:57;10.30;76.50
48575;DHT22;34352;51.084;3.712;2022-10-04T05:05:29;10.30;76.80
48575;DHT22;34352;51.084;3.712;2022-10-04T05:08:23;10.30;76.40
48575;DHT22;34352;51.084;3.712;2022-10-04T05:13:55;10.30;76.30
48575;DHT22;34352;51.084;3.712;2022-10-04T05:19:07;10.30;75.60
48575;DHT22;34352;51.084;3.712;2022-10-04T05:21:43;10.30;75.90
48575;DHT22;34352;51.084;3.712;2022-10-04T05:24:19;10.20;76.20
48575;DHT22;34352;51.084;3.712;2022-10-04T05:26:51;10.20;76.40
48575;DHT22;34352;51.084;3.712;2022-10-04T05:29:23;10.20;77.20
48575;DHT22;34352;51.084;3.712;2022-10-04T05:34:30;10.30;76.20
48575;DHT22;34352;51.084;3.712;2022-10-04T05:42:50;10.30;75.40
48575;DHT22;34352;51.084;3.712;2022-10-04T05:45:21;10.20;74.90
48575;DHT22;34352;51.084;3.712;2022-10-04T05:47:57;10.20;73.90
48575;DHT22;34352;51.084;3.712;2022-10-04T05:50:29;10.10;74.30
48575;DHT22;34352;51.084;3.712;2022-10-04T05:53:18;10.10;74.10
48575;DHT22;34352;51.084;3.712;2022-10-04T06:06:20;9.80;74.00
48575;DHT22;34352;51.084;3.712;2022-10-04T06:11:57;9.90;75.70
48575;DHT22;34352;51.084;3.712;2022-10-04T06:18:01;9.90;78.10
48575;DHT22;34352;51.084;3.712;2022-10-04T06:23:13;10.00;79.20
48575;DHT22;34352;51.084;3.712;2022-10-04T06:25:57;10.20;79.80
48575;DHT22;34352;51.084;3.712;2022-10-04T06:50:48;10.90;78.10
48575;DHT22;34352;51.084;3.712;2022-10-04T06:53:37;11.10;77.70
48575;DHT22;34352;51.084;3.712;2022-10-04T06:59:08;11.70;74.90
48575;DHT22;34352;51.084;3.712;2022-10-04T07:01:46;12.10;73.50
48575;DHT22;34352;51.084;3.712;2022-10-04T07:07:19;14.70;41.20
48575;DHT22;34352;51.084;3.712;2022-10-04T07:10:45;15.80;8.80
48575;DHT22;34352;51.084;3.712;2022-10-04T07:18:19;18.40;1.00
48575;DHT22;34352;51.084;3.712;2022-10-04T07:20:48;18.70;1.00
48575;DHT22;34352;51.084;3.712;2022-10-04T07:23:27;19.00;1.00
48575;DHT22;34352;51.084;3.712;2022-10-04T07:26:03;19.10;1.00
48575;DHT22;34352;51.084;3.712;2022-10-04T07:28:38;19.20;1.00
48575;DHT22;34352;51.084;3.712;2022-10-04T07:34:01;17.70;1.00
48575;DHT22;34352;51.084;3.712;2022-10-04T07:36:36;17.10;1.00
48575;DHT22;34352;51.084;3.712;2022-10-04T07:39:18;17.10;1.00
48575;DHT22;34352;51.084;3.712;2022-10-04T07:41:57;16.50;1.00
48575;DHT22;34352;51.084;3.712;2022-10-04T07:44:36;16.00;1.00
48575;DHT22;34352;51.084;3.712;2022-10-04T07:47:22;15.30;1.00
48575;DHT22;34352;51.084;3.712;2022-10-04T07:49:50;15.30;1.00
48575;DHT22;34352;51.084;3.712;2022-10-04T08:01:07;20.50;99.90
48575;DHT22;34352;51.084;3.712;2022-10-04T08:03:59;20.60;99.90
48575;DHT22;34352;51.084;3.712;2022-10-04T08:09:33;20.70;1.00
48575;DHT22;34352;51.084;3.712;2022-10-04T08:12:20;20.30;99.90
48575;DHT22;34352;51.084;3.712;2022-10-04T08:23:03;18.90;99.90
48575;DHT22;34352;51.084;3.712;2022-10-04T08:49:06;24.00;1.00
48575;DHT22;34352;51.084;3.712;2022-10-04T09:06:06;23.80;1.00
48575;DHT22;34352;51.084;3.712;2022-10-04T09:11:37;24.20;1.00
48575;DHT22;34352;51.084;3.712;2022-10-04T09:17:21;23.90;1.00
48575;DHT22;34352;51.084;3.712;2022-10-04T09:45:19;22.50;1.00
48575;DHT22;34352;51.084;3.712;2022-10-04T09:51:00;22.20;1.00
48575;DHT22;34352;51.084;3.712;2022-10-04T09:54:06;22.20;1.00
48575;DHT22;34352;51.084;3.712;2022-10-04T09:56:42;22.20;1.00
48575;DHT22;34352;51.084;3.712;2022-10-04T09:59:47;22.70;1.00
48575;DHT22;34352;51.084;3.712;2022-10-04T10:16:37;27.00;1.00
48575;DHT22;34352;51.084;3.712;2022-10-04T10:27:52;25.60;1.00
48575;DHT22;34352;51.084;3.712;2022-10-04T10:30:28;26.30;1.00
48575;DHT22;34352;51.084;3.712;2022-10-04T10:36:03;25.60;1.00
48575;DHT22;34352;51.084;3.712;2022-10-04T10:41:25;25.80;1.00
48575;DHT22;34352;51.084;3.712;2022-10-04T10:50:04;26.30;1.00
48575;DHT22;34352;51.084;3.712;2022-10-04T11:04:25;27.80;1.00
48575;DHT22;34352;51.084;3.712;2022-10-04T11:21:10;26.10;1.00
48575;DHT22;34352;51.084;3.712;2022-10-04T11:24:19;26.90;1.00
48575;DHT22;34352;51.084;3.712;2022-10-04T11:27:10;27.20;1.00
48575;DHT22;34352;51.084;3.712;2022-10-04T11:29:57;26.40;1.00
48575;DHT22;34352;51.084;3.712;2022-10-04T11:46:38;27.40;1.00
48575;DHT22;34352;51.084;3.712;2022-10-04T11:52:17;26.70;1.00
48575;DHT22;34352;51.084;3.712;2022-10-04T11:57:44;27.20;1.00
48575;DHT22;34352;51.084;3.712;2022-10-04T12:00:23;26.50;1.00
48575;DHT22;34352;51.084;3.712;2022-10-04T12:03:21;27.20;1.00
48575;DHT22;34352;51.084;3.712;2022-10-04T12:06:37;27.60;1.00
48575;DHT22;34352;51.084;3.712;2022-10-04T12:26:26;27.90;1.00
48575;DHT22;34352;51.084;3.712;2022-10-04T12:34:27;28.00;1.00
48575;DHT22;34352;51.084;3.712;2022-10-04T12:43:02;28.40;1.00
48575;DHT22;34352;51.084;3.712;2022-10-04T12:53:53;27.50;1.00
48575;DHT22;34352;51.084;3.712;2022-10-04T12:56:44;26.90;1.00
48575;DHT22;34352;51.084;3.712;2022-10-04T12:59:21;26.30;1.00
48575;DHT22;34352;51.084;3.712;2022-10-04T13:04:33;26.20;1.00
48575;DHT22;34352;51.084;3.712;2022-10-04T13:23:00;26.40;1.00
48575;DHT22;34352;51.084;3.712;2022-10-04T13:30:49;25.40;1.00
48575;DHT22;34352;51.084;3.712;2022-10-04T13:44:21;24.50;1.00
48575;DHT22;34352;51.084;3.712;2022-10-04T13:50:03;24.50;1.00
48575;DHT22;34352;51.084;3.712;2022-10-04T13:56:03;24.20;1.00
48575;DHT22;34352;51.084;3.712;2022-10-04T14:17:55;22.70;1.00
48575;DHT22;34352;51.084;3.712;2022-10-04T14:26:18;23.20;1.00
48575;DHT22;34352;51.084;3.712;2022-10-04T14:53:46;21.20;1.00
48575;DHT22;34352;51.084;3.712;2022-10-04T15:07:45;20.70;99.90
48575;DHT22;34352;51.084;3.712;2022-10-04T15:18:56;20.60;99.90
48575;DHT22;34352;51.084;3.712;2022-10-04T15:21:34;20.60;99.90
48575;DHT22;34352;51.084;3.712;2022-10-04T15:27:14;20.50;99.90
48575;DHT22;34352;51.084;3.712;2022-10-04T15:32:51;20.60;99.90
48575;DHT22;34352;51.084;3.712;2022-10-04T15:40:59;20.30;99.90
48575;DHT22;34352;51.084;3.712;2022-10-04T15:43:40;20.40;99.90
48575;DHT22;34352;51.084;3.712;2022-10-04T15:52:00;20.00;99.90
48575;DHT22;34352;51.084;3.712;2022-10-04T15:59:53;19.80;99.90
48575;DHT22;34352;51.084;3.712;2022-10-04T16:02:29;19.70;1.00
48575;DHT22;34352;51.084;3.712;2022-10-04T16:08:16;19.70;1.00
48575;DHT22;34352;51.084;3.712;2022-10-04T16:21:53;19.50;1.00
48575;DHT22;34352;51.084;3.712;2022-10-04T16:42:39;19.40;1.00
48575;DHT22;34352;51.084;3.712;2022-10-04T16:50:12;19.10;1.00
48575;DHT22;34352;51.084;3.712;2022-10-04T16:55:52;19.10;1.00
48575;DHT22;34352;51.084;3.712;2022-10-04T17:07:18;19.00;1.00
48575;DHT22;34352;51.084;3.712;2022-10-04T17:10:03;19.10;1.00
48575;DHT22;34352;51.084;3.712;2022-10-04T17:12:44;19.00;1.00
48575;DHT22;34352;51.084;3.712;2022-10-04T17:29:01;18.80;1.00
48575;DHT22;34352;51.084;3.712;2022-10-04T17:42:59;18.70;1.00
48575;DHT22;34352;51.084;3.712;2022-10-04T17:45:55;18.60;1.00
48575;DHT22;34352;51.084;3.712;2022-10-04T17:48:27;18.70;1.00
48575;DHT22;34352;51.084;3.712;2022-10-04T17:51:32;18.60;1.00
48575;DHT22;34352;51.084;3.712;2022-10-04T17:57:48;18.50;1.00
48575;DHT22;34352;51.084;3.712;2022-10-04T18:00:25;18.50;1.00
48575;DHT22;34352;51.084;3.712;2022-10-04T18:03:12;18.40;1.00
48575;DHT22;34352;51.084;3.712;2022-10-04T18:11:21;18.30;1.00
48575;DHT22;34352;51.084;3.712;2022-10-04T18:13:59;18.20;1.00
48575;DHT22;34352;51.084;3.712;2022-10-04T18:16:48;18.20;1.00
48575;DHT22;34352;51.084;3.712;2022-10-04T18:22:11;18.40;1.00
48575;DHT22;34352;51.084;3.712;2022-10-04T18:24:40;18.30;1.00
48575;DHT22;34352;51.084;3.712;2022-10-04T18:27:22;18.40;1.00
48575;DHT22;34352;51.084;3.712;2022-10-04T18:34:58;18.30;1.00
48575;DHT22;34352;51.084;3.712;2022-10-04T18:37:33;18.20;1.00
48575;DHT22;34352;51.084;3.712;2022-10-04T18:42:41;18.10;1.00
48575;DHT22;34352;51.084;3.712;2022-10-04T18:47:45;18.20;1.00
48575;DHT22;34352;51.084;3.712;2022-10-04T18:53:23;18.10;1.00
48575;DHT22;34352;51.084;3.712;2022-10-04T18:56:04;18.20;1.00
48575;DHT22;34352;51.084;3.712;2022-10-04T19:10:46;18.20;1.00
48575;DHT22;34352;51.084;3.712;2022-10-04T19:13:33;18.10;1.00
48575;DHT22;34352;51.084;3.712;2022-10-04T19:18:46;18.10;1.00
48575;DHT22;34352;51.084;3.712;2022-10-04T19:26:37;17.90;1.00
48575;DHT22;34352;51.084;3.712;2022-10-04T19:32:04;18.00;1.00
48575;DHT22;34352;51.084;3.712;2022-10-04T19:34:47;17.90;1.00
48575;DHT22;34352;51.084;3.712;2022-10-04T19:40:18;17.70;1.00
48575;DHT22;34352;51.084;3.712;2022-10-04T19:43:03;17.60;1.00
48575;DHT22;34352;51.084;3.712;2022-10-04T19:48:16;17.70;1.00
48575;DHT22;34352;51.084;3.712;2022-10-04T19:50:47;17.70;1.00
48575;DHT22;34352;51.084;3.712;2022-10-04T19:58:39;17.70;1.00
48575;DHT22;34352;51.084;3.712;2022-10-04T20:01:10;17.70;1.00
48575;DHT22;34352;51.084;3.712;2022-10-04T20:03:36;17.70;1.00
48575;DHT22;34352;51.084;3.712;2022-10-04T20:06:01;17.80;1.00
48575;DHT22;34352;51.084;3.712;2022-10-04T20:11:49;17.70;1.00
48575;DHT22;34352;51.084;3.712;2022-10-04T20:19:35;17.80;1.00
48575;DHT22;34352;51.084;3.712;2022-10-04T20:27:02;18.00;1.00
48575;DHT22;34352;51.084;3.712;2022-10-04T20:32:09;17.60;1.00
48575;DHT22;34352;51.084;3.712;2022-10-04T20:37:05;17.60;1.00
48575;DHT22;34352;51.084;3.712;2022-10-04T20:42:11;17.50;1.00
48575;DHT22;34352;51.084;3.712;2022-10-04T20:44:57;17.60;1.00
48575;DHT22;34352;51.084;3.712;2022-10-04T20:47:42;17.60;1.00
48575;DHT22;34352;51.084;3.712;2022-10-04T20:50:28;17.50;1.00
48575;DHT22;34352;51.084;3.712;2022-10-04T20:52:57;17.60;1.00
48575;DHT22;34352;51.084;3.712;2022-10-04T20:55:29;17.60;1.00
48575;DHT22;34352;51.084;3.712;2022-10-04T21:00:53;17.50;1.00
48575;DHT22;34352;51.084;3.712;2022-10-04T21:03:20;17.50;1.00
48575;DHT22;34352;51.084;3.712;2022-10-04T21:05:59;17.60;1.00
48575;DHT22;34352;51.084;3.712;2022-10-04T21:08:26;17.50;1.00
48575;DHT22;34352;51.084;3.712;2022-10-04T21:16:05;17.40;1.00
48575;DHT22;34352;51.084;3.712;2022-10-04T21:18:34;17.40;1.00
48575;DHT22;34352;51.084;3.712;2022-10-04T21:21:00;17.40;1.00
48575;DHT22;34352;51.084;3.712;2022-10-04T21:23:33;17.40;1.00
48575;DHT22;34352;51.084;3.712;2022-10-04T21:26:18;17.50;1.00
48575;DHT22;34352;51.084;3.712;2022-10-04T21:28:46;17.40;1.00
48575;DHT22;34352;51.084;3.712;2022-10-04T21:31:11;17.50;1.00
48575;DHT22;34352;51.084;3.712;2022-10-04T21:33:37;17.50;1.00
48575;DHT22;34352;51.084;3.712;2022-10-04T21:36:04;17.60;1.00
48575;DHT22;34352;51.084;3.712;2022-10-04T21:38:30;17.60;1.00
48575;DHT22;34352;51.084;3.712;2022-10-04T21:40:56;17.40;1.00
48575;DHT22;34352;51.084;3.712;2022-10-04T21:43:22;17.40;3.20
48575;DHT22;34352;51.084;3.712;2022-10-04T21:45:49;16.90;3.60
48575;DHT22;34352;51.084;3.712;2022-10-04T21:48:14;17.40;4.30
48575;DHT22;34352;51.084;3.712;2022-10-04T21:50:40;17.30;7.00
48575;DHT22;34352;51.084;3.712;2022-10-04T21:53:06;17.70;10.30
48575;DHT22;34352;51.084;3.712;2022-10-04T21:55:32;17.40;5.40
48575;DHT22;34352;51.084;3.712;2022-10-04T21:57:57;17.50;3.80
48575;DHT22;34352;51.084;3.712;2022-10-04T22:00:23;17.40;4.80
48575;DHT22;34352;51.084;3.712;2022-10-04T22:02:48;17.30;7.70
48575;DHT22;34352;51.084;3.712;2022-10-04T22:05:14;17.30;7.60
48575;DHT22;34352;51.084;3.712;2022-10-04T22:07:40;17.20;7.60
48575;DHT22;34352;51.084;3.712;2022-10-04T22:10:06;17.30;4.80
48575;DHT22;34352;51.084;3.712;2022-10-04T22:12:32;17.20;4.30
48575;DHT22;34352;51.084;3.712;2022-10-04T22:14:57;17.10;7.20
48575;DHT22;34352;51.084;3.712;2022-10-04T22:17:24;17.10;8.90
48575;DHT22;34352;51.084;3.712;2022-10-04T22:19:50;17.10;7.50
48575;DHT22;34352;51.084;3.712;2022-10-04T22:22:18;17.40;7.50
48575;DHT22;34352;51.084;3.712;2022-10-04T22:24:44;17.00;8.50
48575;DHT22;34352;51.084;3.712;2022-10-04T22:27:15;17.00;10.50
48575;DHT22;34352;51.084;3.712;2022-10-04T22:29:41;16.90;16.40
48575;DHT22;34352;51.084;3.712;2022-10-04T22:32:12;17.20;13.70
48575;DHT22;34352;51.084;3.712;2022-10-04T22:34:39;17.00;13.30
48575;DHT22;34352;51.084;3.712;2022-10-04T22:37:09;17.10;11.60
48575;DHT22;34352;51.084;3.712;2022-10-04T22:39:34;17.00;14.20
48575;DHT22;34352;51.084;3.712;2022-10-04T22:42:00;16.90;18.80
48575;DHT22;34352;51.084;3.712;2022-10-04T22:47:00;16.70;28.10
48575;DHT22;34352;51.084;3.712;2022-10-04T22:49:30;17.00;31.40
48575;DHT22;34352;51.084;3.712;2022-10-04T22:51:58;16.80;29.80
48575;DHT22;34352;51.084;3.712;2022-10-04T22:54:30;16.80;30.30
48575;DHT22;34352;51.084;3.712;2022-10-04T22:56:56;16.70;31.40
48575;DHT22;34352;51.084;3.712;2022-10-04T22:59:32;16.70;30.30
48575;DHT22;34352;51.084;3.712;2022-10-04T23:01:59;16.70;30.90
48575;DHT22;34352;51.084;3.712;2022-10-04T23:04:29;16.70;30.90
48575;DHT22;34352;51.084;3.712;2022-10-04T23:06:55;16.70;30.30
48575;DHT22;34352;51.084;3.712;2022-10-04T23:09:21;16.80;32.60
48575;DHT22;34352;51.084;3.712;2022-10-04T23:11:47;16.60;32.40
48575;DHT22;34352;51.084;3.712;2022-10-04T23:14:13;16.60;34.60
48575;DHT22;34352;51.084;3.712;2022-10-04T23:16:39;16.60;35.30
48575;DHT22;34352;51.084;3.712;2022-10-04T23:21:34;16.60;35.90
48575;DHT22;34352;51.084;3.712;2022-10-04T23:24:16;17.50;34.30
48575;DHT22;34352;51.084;3.712;2022-10-04T23:26:45;16.70;33.90
48575;DHT22;34352;51.084;3.712;2022-10-04T23:29:21;17.30;32.60
48575;DHT22;34352;51.084;3.712;2022-10-04T23:31:48;16.60;36.20
48575;DHT22;34352;51.084;3.712;2022-10-04T23:34:41;16.60;38.30
48575;DHT22;34352;51.084;3.712;2022-10-04T23:37:30;16.50;38.80
48575;DHT22;34352;51.084;3.712;2022-10-04T23:39:57;16.50;36.70
48575;DHT22;34352;51.084;3.712;2022-10-04T23:42:28;16.60;35.00
48575;DHT22;34352;51.084;3.712;2022-10-04T23:44:57;16.60;34.70
48575;DHT22;34352;51.084;3.712;2022-10-04T23:47:31;16.80;36.00
48575;DHT22;34352;51.084;3.712;2022-10-04T23:49:57;16.60;35.60
48575;DHT22;34352;51.084;3.712;2022-10-04T23:52:37;16.70;35.40
48575;DHT22;34352;51.084;3.712;2022-10-04T23:55:16;16.60;35.70
48575;DHT22;34352;51.084;3.712;2022-10-04T23:57:44;16.60;35.00
